sensor_id;sensor_type;location;lat;lon;timestamp;temperature;humidity
35746;DHT22;21870;42.812;74.628;2022-07-25T00:01:22;25.50;84.50
35746;DHT22;21870;42.812;74.628;2022-07-25T00:03:49;25.60;86.50
35746;DHT22;21870;42.812;74.628;2022-07-25T00:06:15;25.60;85.50
35746;DHT22;21870;42.812;74.628;2022-07-25T00:08:41;25.60;85.00
35746;DHT22;21870;42.812;74.628;2022-07-25T00:11:07;25.50;85.20
35746;DHT22;21870;42.812;74.628;2022-07-25T00:13:33;25.50;85.50
35746;DHT22;21870;42.812;74.628;2022-07-25T00:15:59;25.50;85.50
35746;DHT22;21870;42.812;74.628;2022-07-25T00:18:25;25.50;85.20
35746;DHT22;21870;42.812;74.628;2022-07-25T00:20:51;25.50;85.10
35746;DHT22;21870;42.812;74.628;2022-07-25T00:23:18;25.60;85.60
35746;DHT22;21870;42.812;74.628;2022-07-25T00:25:44;25.60;85.90
35746;DHT22;21870;42.812;74.628;2022-07-25T00:28:10;25.60;85.30
35746;DHT22;21870;42.812;74.628;2022-07-25T00:30:36;25.60;85.30
35746;DHT22;21870;42.812;74.628;2022-07-25T00:33:02;25.60;85.60
35746;DHT22;21870;42.812;74.628;2022-07-25T00:35:28;25.70;87.80
35746;DHT22;21870;42.812;74.628;2022-07-25T00:37:54;25.80;88.70
35746;DHT22;21870;42.812;74.628;2022-07-25T00:40:21;25.80;89.00
35746;DHT22;21870;42.812;74.628;2022-07-25T00:42:47;25.80;85.10
35746;DHT22;21870;42.812;74.628;2022-07-25T00:45:13;25.90;84.80
35746;DHT22;21870;42.812;74.628;2022-07-25T00:47:39;25.90;84.80
35746;DHT22;21870;42.812;74.628;2022-07-25T00:50:06;26.10;86.50
35746;DHT22;21870;42.812;74.628;2022-07-25T00:52:32;26.00;89.20
35746;DHT22;21870;42.812;74.628;2022-07-25T00:54:59;26.10;86.60
35746;DHT22;21870;42.812;74.628;2022-07-25T00:57:25;26.10;86.70
35746;DHT22;21870;42.812;74.628;2022-07-25T00:59:51;26.10;86.60
35746;DHT22;21870;42.812;74.628;2022-07-25T01:02:17;26.10;86.80
35746;DHT22;21870;42.812;74.628;2022-07-25T01:04:43;26.20;86.90
35746;DHT22;21870;42.812;74.628;2022-07-25T01:07:10;26.30;86.80
35746;DHT22;21870;42.812;74.628;2022-07-25T01:09:36;26.30;86.80
35746;DHT22;21870;42.812;74.628;2022-07-25T01:12:02;26.50;87.10
35746;DHT22;21870;42.812;74.628;2022-07-25T01:14:29;26.60;86.80
35746;DHT22;21870;42.812;74.628;2022-07-25T01:16:55;26.80;87.20
35746;DHT22;21870;42.812;74.628;2022-07-25T01:19:21;26.90;88.80
35746;DHT22;21870;42.812;74.628;2022-07-25T01:21:47;26.90;89.40
35746;DHT22;21870;42.812;74.628;2022-07-25T01:24:13;26.90;89.60
35746;DHT22;21870;42.812;74.628;2022-07-25T01:26:39;27.00;90.00
35746;DHT22;21870;42.812;74.628;2022-07-25T01:29:06;27.00;89.30
35746;DHT22;21870;42.812;74.628;2022-07-25T01:31:32;27.10;89.20
35746;DHT22;21870;42.812;74.628;2022-07-25T01:33:58;27.20;87.40
35746;DHT22;21870;42.812;74.628;2022-07-25T01:36:24;27.30;87.00
35746;DHT22;21870;42.812;74.628;2022-07-25T01:38:50;27.40;86.50
35746;DHT22;21870;42.812;74.628;2022-07-25T01:41:16;27.70;88.20
35746;DHT22;21870;42.812;74.628;2022-07-25T01:43:42;27.70;88.70
35746;DHT22;21870;42.812;74.628;2022-07-25T01:46:08;27.80;87.30
35746;DHT22;21870;42.812;74.628;2022-07-25T01:48:34;27.90;89.90
35746;DHT22;21870;42.812;74.628;2022-07-25T01:51:00;28.10;85.60
35746;DHT22;21870;42.812;74.628;2022-07-25T01:53:26;28.20;87.10
35746;DHT22;21870;42.812;74.628;2022-07-25T01:55:52;28.30;85.70
35746;DHT22;21870;42.812;74.628;2022-07-25T01:58:18;28.30;84.30
35746;DHT22;21870;42.812;74.628;2022-07-25T02:00:44;28.20;84.40
35746;DHT22;21870;42.812;74.628;2022-07-25T02:03:11;28.20;83.70
35746;DHT22;21870;42.812;74.628;2022-07-25T02:05:58;28.30;86.30
35746;DHT22;21870;42.812;74.628;2022-07-25T02:08:25;28.40;85.30
35746;DHT22;21870;42.812;74.628;2022-07-25T02:10:51;28.50;85.10
35746;DHT22;21870;42.812;74.628;2022-07-25T02:13:17;28.70;85.10
35746;DHT22;21870;42.812;74.628;2022-07-25T02:15:43;28.90;84.60
35746;DHT22;21870;42.812;74.628;2022-07-25T02:18:09;28.90;83.60
35746;DHT22;21870;42.812;74.628;2022-07-25T02:20:35;29.00;84.70
35746;DHT22;21870;42.812;74.628;2022-07-25T02:23:03;29.10;85.30
35746;DHT22;21870;42.812;74.628;2022-07-25T02:25:29;29.30;86.00
35746;DHT22;21870;42.812;74.628;2022-07-25T02:27:55;29.40;85.40
35746;DHT22;21870;42.812;74.628;2022-07-25T02:30:21;29.50;85.70
35746;DHT22;21870;42.812;74.628;2022-07-25T02:32:47;29.70;83.50
35746;DHT22;21870;42.812;74.628;2022-07-25T02:35:17;29.80;83.50
35746;DHT22;21870;42.812;74.628;2022-07-25T02:37:46;29.80;82.80
35746;DHT22;21870;42.812;74.628;2022-07-25T02:40:12;29.90;83.80
35746;DHT22;21870;42.812;74.628;2022-07-25T02:42:41;30.00;82.90
35746;DHT22;21870;42.812;74.628;2022-07-25T02:45:07;29.90;82.20
35746;DHT22;21870;42.812;74.628;2022-07-25T02:47:33;29.70;81.60
35746;DHT22;21870;42.812;74.628;2022-07-25T02:49:59;29.60;81.70
35746;DHT22;21870;42.812;74.628;2022-07-25T02:52:25;29.40;83.60
35746;DHT22;21870;42.812;74.628;2022-07-25T02:54:52;29.40;84.10
35746;DHT22;21870;42.812;74.628;2022-07-25T02:57:18;29.40;86.20
35746;DHT22;21870;42.812;74.628;2022-07-25T02:59:44;29.60;84.80
35746;DHT22;21870;42.812;74.628;2022-07-25T03:02:10;29.90;84.90
35746;DHT22;21870;42.812;74.628;2022-07-25T03:04:36;30.10;84.30
35746;DHT22;21870;42.812;74.628;2022-07-25T03:07:02;30.30;85.70
35746;DHT22;21870;42.812;74.628;2022-07-25T03:09:28;30.50;84.50
35746;DHT22;21870;42.812;74.628;2022-07-25T03:11:54;30.50;83.70
35746;DHT22;21870;42.812;74.628;2022-07-25T03:14:21;30.50;85.10
35746;DHT22;21870;42.812;74.628;2022-07-25T03:16:47;30.60;84.00
35746;DHT22;21870;42.812;74.628;2022-07-25T03:19:13;30.50;82.00
35746;DHT22;21870;42.812;74.628;2022-07-25T03:21:39;30.50;83.20
35746;DHT22;21870;42.812;74.628;2022-07-25T03:24:05;30.40;81.70
35746;DHT22;21870;42.812;74.628;2022-07-25T03:26:31;30.30;83.90
35746;DHT22;21870;42.812;74.628;2022-07-25T03:28:57;30.30;85.10
35746;DHT22;21870;42.812;74.628;2022-07-25T03:31:23;30.30;85.00
35746;DHT22;21870;42.812;74.628;2022-07-25T03:33:49;30.30;83.10
35746;DHT22;21870;42.812;74.628;2022-07-25T03:36:16;30.50;81.00
35746;DHT22;21870;42.812;74.628;2022-07-25T03:38:42;30.70;80.00
35746;DHT22;21870;42.812;74.628;2022-07-25T03:41:08;30.80;81.20
35746;DHT22;21870;42.812;74.628;2022-07-25T03:43:34;30.70;79.30
35746;DHT22;21870;42.812;74.628;2022-07-25T03:46:00;30.70;78.80
35746;DHT22;21870;42.812;74.628;2022-07-25T03:48:26;30.80;78.80
35746;DHT22;21870;42.812;74.628;2022-07-25T03:50:52;30.90;78.80
35746;DHT22;21870;42.812;74.628;2022-07-25T03:53:18;30.90;78.60
35746;DHT22;21870;42.812;74.628;2022-07-25T03:55:44;31.00;78.50
35746;DHT22;21870;42.812;74.628;2022-07-25T03:58:10;31.10;80.80
35746;DHT22;21870;42.812;74.628;2022-07-25T04:00:36;31.40;78.00
35746;DHT22;21870;42.812;74.628;2022-07-25T04:03:02;31.80;77.00
35746;DHT22;21870;42.812;74.628;2022-07-25T04:05:28;32.10;77.90
35746;DHT22;21870;42.812;74.628;2022-07-25T04:07:55;32.40;76.70
35746;DHT22;21870;42.812;74.628;2022-07-25T04:10:21;32.70;75.30
35746;DHT22;21870;42.812;74.628;2022-07-25T04:12:47;32.90;79.80
35746;DHT22;21870;42.812;74.628;2022-07-25T04:15:13;33.10;80.90
35746;DHT22;21870;42.812;74.628;2022-07-25T04:17:39;33.20;76.10
35746;DHT22;21870;42.812;74.628;2022-07-25T04:20:06;33.30;77.50
35746;DHT22;21870;42.812;74.628;2022-07-25T04:22:32;33.50;78.40
35746;DHT22;21870;42.812;74.628;2022-07-25T04:24:58;33.40;79.00
35746;DHT22;21870;42.812;74.628;2022-07-25T04:27:24;33.60;76.00
35746;DHT22;21870;42.812;74.628;2022-07-25T04:29:50;33.80;76.90
35746;DHT22;21870;42.812;74.628;2022-07-25T04:32:16;33.90;76.70
35746;DHT22;21870;42.812;74.628;2022-07-25T04:34:44;34.10;76.40
35746;DHT22;21870;42.812;74.628;2022-07-25T04:37:10;34.00;77.90
35746;DHT22;21870;42.812;74.628;2022-07-25T04:39:36;33.90;75.10
35746;DHT22;21870;42.812;74.628;2022-07-25T04:42:03;33.80;75.40
35746;DHT22;21870;42.812;74.628;2022-07-25T04:44:29;33.80;76.20
35746;DHT22;21870;42.812;74.628;2022-07-25T04:46:55;33.80;75.70
35746;DHT22;21870;42.812;74.628;2022-07-25T04:49:21;33.90;76.40
35746;DHT22;21870;42.812;74.628;2022-07-25T04:51:47;34.10;77.40
35746;DHT22;21870;42.812;74.628;2022-07-25T04:54:13;34.30;77.70
35746;DHT22;21870;42.812;74.628;2022-07-25T04:56:39;34.40;73.80
35746;DHT22;21870;42.812;74.628;2022-07-25T04:59:05;34.60;72.40
35746;DHT22;21870;42.812;74.628;2022-07-25T05:01:31;34.70;77.10
35746;DHT22;21870;42.812;74.628;2022-07-25T05:03:57;34.80;74.90
35746;DHT22;21870;42.812;74.628;2022-07-25T05:06:23;35.00;73.10
35746;DHT22;21870;42.812;74.628;2022-07-25T05:08:49;35.10;75.10
35746;DHT22;21870;42.812;74.628;2022-07-25T05:11:15;35.10;73.70
35746;DHT22;21870;42.812;74.628;2022-07-25T05:13:41;35.00;73.00
35746;DHT22;21870;42.812;74.628;2022-07-25T05:16:07;35.10;72.20
35746;DHT22;21870;42.812;74.628;2022-07-25T05:18:34;35.00;73.40
35746;DHT22;21870;42.812;74.628;2022-07-25T05:21:00;35.20;74.00
35746;DHT22;21870;42.812;74.628;2022-07-25T05:23:26;35.20;72.90
35746;DHT22;21870;42.812;74.628;2022-07-25T05:25:52;35.20;71.00
35746;DHT22;21870;42.812;74.628;2022-07-25T05:28:18;35.30;72.80
35746;DHT22;21870;42.812;74.628;2022-07-25T05:30:44;35.20;74.80
35746;DHT22;21870;42.812;74.628;2022-07-25T05:33:10;35.20;75.30
35746;DHT22;21870;42.812;74.628;2022-07-25T05:35:36;35.40;76.30
35746;DHT22;21870;42.812;74.628;2022-07-25T05:38:03;35.30;76.60
35746;DHT22;21870;42.812;74.628;2022-07-25T05:40:29;35.40;75.30
35746;DHT22;21870;42.812;74.628;2022-07-25T05:42:55;35.40;75.50
35746;DHT22;21870;42.812;74.628;2022-07-25T05:45:21;35.40;74.10
35746;DHT22;21870;42.812;74.628;2022-07-25T05:47:47;35.30;75.50
35746;DHT22;21870;42.812;74.628;2022-07-25T05:50:13;35.10;74.70
35746;DHT22;21870;42.812;74.628;2022-07-25T05:52:39;35.10;75.60
35746;DHT22;21870;42.812;74.628;2022-07-25T05:55:05;35.00;75.20
35746;DHT22;21870;42.812;74.628;2022-07-25T05:57:32;35.10;77.10
35746;DHT22;21870;42.812;74.628;2022-07-25T05:59:59;35.30;74.50
35746;DHT22;21870;42.812;74.628;2022-07-25T06:02:25;35.40;73.10
35746;DHT22;21870;42.812;74.628;2022-07-25T06:04:51;35.50;73.60
35746;DHT22;21870;42.812;74.628;2022-07-25T06:07:17;35.50;73.20
35746;DHT22;21870;42.812;74.628;2022-07-25T06:09:43;35.40;74.70
35746;DHT22;21870;42.812;74.628;2022-07-25T06:12:09;35.40;74.60
35746;DHT22;21870;42.812;74.628;2022-07-25T06:14:35;35.50;74.80
35746;DHT22;21870;42.812;74.628;2022-07-25T06:17:02;35.60;73.00
35746;DHT22;21870;42.812;74.628;2022-07-25T06:19:28;35.60;73.60
35746;DHT22;21870;42.812;74.628;2022-07-25T06:21:54;35.50;73.70
35746;DHT22;21870;42.812;74.628;2022-07-25T06:24:21;35.60;76.20
35746;DHT22;21870;42.812;74.628;2022-07-25T06:26:47;35.70;75.10
35746;DHT22;21870;42.812;74.628;2022-07-25T06:29:13;35.60;75.70
35746;DHT22;21870;42.812;74.628;2022-07-25T06:31:39;35.80;75.70
35746;DHT22;21870;42.812;74.628;2022-07-25T06:34:05;35.80;74.80
35746;DHT22;21870;42.812;74.628;2022-07-25T06:36:31;35.90;71.10
35746;DHT22;21870;42.812;74.628;2022-07-25T06:38:57;35.90;72.60
35746;DHT22;21870;42.812;74.628;2022-07-25T06:41:23;35.90;74.70
35746;DHT22;21870;42.812;74.628;2022-07-25T06:43:49;35.90;74.10
35746;DHT22;21870;42.812;74.628;2022-07-25T06:46:15;35.90;71.30
35746;DHT22;21870;42.812;74.628;2022-07-25T06:48:41;36.00;73.40
35746;DHT22;21870;42.812;74.628;2022-07-25T06:51:07;36.00;73.20
35746;DHT22;21870;42.812;74.628;2022-07-25T06:53:33;35.90;72.50
35746;DHT22;21870;42.812;74.628;2022-07-25T06:56:00;35.90;74.30
35746;DHT22;21870;42.812;74.628;2022-07-25T06:58:28;35.80;73.10
35746;DHT22;21870;42.812;74.628;2022-07-25T07:00:54;35.70;74.30
35746;DHT22;21870;42.812;74.628;2022-07-25T07:03:20;36.00;73.40
35746;DHT22;21870;42.812;74.628;2022-07-25T07:05:46;36.00;72.80
35746;DHT22;21870;42.812;74.628;2022-07-25T07:08:12;36.10;72.00
35746;DHT22;21870;42.812;74.628;2022-07-25T07:10:39;36.10;71.40
35746;DHT22;21870;42.812;74.628;2022-07-25T07:13:07;36.20;75.80
35746;DHT22;21870;42.812;74.628;2022-07-25T07:15:34;36.20;76.30
35746;DHT22;21870;42.812;74.628;2022-07-25T07:18:01;36.30;73.50
35746;DHT22;21870;42.812;74.628;2022-07-25T07:20:27;36.40;72.60
35746;DHT22;21870;42.812;74.628;2022-07-25T07:22:53;36.60;72.90
35746;DHT22;21870;42.812;74.628;2022-07-25T07:25:19;36.70;74.50
35746;DHT22;21870;42.812;74.628;2022-07-25T07:27:46;36.80;73.50
35746;DHT22;21870;42.812;74.628;2022-07-25T07:30:13;36.80;74.20
35746;DHT22;21870;42.812;74.628;2022-07-25T07:32:42;36.70;72.40
35746;DHT22;21870;42.812;74.628;2022-07-25T07:35:09;36.70;75.40
35746;DHT22;21870;42.812;74.628;2022-07-25T07:37:37;36.70;73.10
35746;DHT22;21870;42.812;74.628;2022-07-25T07:40:03;36.90;75.40
35746;DHT22;21870;42.812;74.628;2022-07-25T07:42:56;36.90;75.90
35746;DHT22;21870;42.812;74.628;2022-07-25T07:45:25;37.00;73.90
35746;DHT22;21870;42.812;74.628;2022-07-25T07:47:53;37.00;74.00
35746;DHT22;21870;42.812;74.628;2022-07-25T07:50:24;36.90;74.30
35746;DHT22;21870;42.812;74.628;2022-07-25T07:52:52;37.00;73.30
35746;DHT22;21870;42.812;74.628;2022-07-25T07:55:19;37.20;73.80
35746;DHT22;21870;42.812;74.628;2022-07-25T07:58:05;37.40;72.50
35746;DHT22;21870;42.812;74.628;2022-07-25T08:00:32;37.40;71.10
35746;DHT22;21870;42.812;74.628;2022-07-25T08:03:05;37.40;70.40
35746;DHT22;21870;42.812;74.628;2022-07-25T08:05:43;37.40;70.30
35746;DHT22;21870;42.812;74.628;2022-07-25T08:08:11;37.40;71.00
35746;DHT22;21870;42.812;74.628;2022-07-25T08:10:42;37.40;70.00
35746;DHT22;21870;42.812;74.628;2022-07-25T08:13:13;37.20;71.80
35746;DHT22;21870;42.812;74.628;2022-07-25T08:15:40;37.00;73.00
35746;DHT22;21870;42.812;74.628;2022-07-25T08:18:06;37.10;72.90
35746;DHT22;21870;42.812;74.628;2022-07-25T08:20:32;37.20;72.70
35746;DHT22;21870;42.812;74.628;2022-07-25T08:22:58;37.30;69.70
35746;DHT22;21870;42.812;74.628;2022-07-25T08:25:25;37.40;71.30
35746;DHT22;21870;42.812;74.628;2022-07-25T08:27:52;37.30;74.20
35746;DHT22;21870;42.812;74.628;2022-07-25T08:30:18;37.40;75.90
35746;DHT22;21870;42.812;74.628;2022-07-25T08:32:51;37.40;71.30
35746;DHT22;21870;42.812;74.628;2022-07-25T08:35:19;37.40;71.10
35746;DHT22;21870;42.812;74.628;2022-07-25T08:37:46;37.30;70.20
35746;DHT22;21870;42.812;74.628;2022-07-25T08:40:14;37.40;70.20
35746;DHT22;21870;42.812;74.628;2022-07-25T08:42:41;37.50;69.60
35746;DHT22;21870;42.812;74.628;2022-07-25T08:45:11;37.50;70.10
35746;DHT22;21870;42.812;74.628;2022-07-25T08:47:39;37.60;70.60
35746;DHT22;21870;42.812;74.628;2022-07-25T08:50:08;37.60;71.00
35746;DHT22;21870;42.812;74.628;2022-07-25T08:52:35;37.70;68.70
35746;DHT22;21870;42.812;74.628;2022-07-25T08:55:07;37.80;70.90
35746;DHT22;21870;42.812;74.628;2022-07-25T08:57:36;37.80;71.60
35746;DHT22;21870;42.812;74.628;2022-07-25T09:00:06;37.70;72.50
35746;DHT22;21870;42.812;74.628;2022-07-25T09:02:33;37.50;72.50
35746;DHT22;21870;42.812;74.628;2022-07-25T09:05:02;37.30;73.40
35746;DHT22;21870;42.812;74.628;2022-07-25T09:07:30;37.40;73.60
35746;DHT22;21870;42.812;74.628;2022-07-25T09:09:56;37.30;71.70
35746;DHT22;21870;42.812;74.628;2022-07-25T09:12:26;37.30;71.40
35746;DHT22;21870;42.812;74.628;2022-07-25T09:14:53;37.20;70.50
35746;DHT22;21870;42.812;74.628;2022-07-25T09:17:19;37.10;72.30
35746;DHT22;21870;42.812;74.628;2022-07-25T09:19:53;37.00;72.30
35746;DHT22;21870;42.812;74.628;2022-07-25T09:22:20;37.10;71.70
35746;DHT22;21870;42.812;74.628;2022-07-25T09:24:46;37.30;71.00
35746;DHT22;21870;42.812;74.628;2022-07-25T09:27:13;37.30;69.50
35746;DHT22;21870;42.812;74.628;2022-07-25T09:29:40;37.20;70.70
35746;DHT22;21870;42.812;74.628;2022-07-25T09:32:21;37.10;71.40
35746;DHT22;21870;42.812;74.628;2022-07-25T09:34:51;37.00;70.00
35746;DHT22;21870;42.812;74.628;2022-07-25T09:37:24;37.20;71.00
35746;DHT22;21870;42.812;74.628;2022-07-25T09:39:51;37.20;70.70
35746;DHT22;21870;42.812;74.628;2022-07-25T09:42:21;37.20;70.90
35746;DHT22;21870;42.812;74.628;2022-07-25T09:45:04;37.40;72.40
35746;DHT22;21870;42.812;74.628;2022-07-25T09:47:32;37.40;69.80
35746;DHT22;21870;42.812;74.628;2022-07-25T09:49:59;37.30;70.10
35746;DHT22;21870;42.812;74.628;2022-07-25T09:52:26;37.50;68.40
35746;DHT22;21870;42.812;74.628;2022-07-25T09:54:52;37.40;69.20
35746;DHT22;21870;42.812;74.628;2022-07-25T09:57:20;37.60;68.00
35746;DHT22;21870;42.812;74.628;2022-07-25T09:59:49;37.60;67.60
35746;DHT22;21870;42.812;74.628;2022-07-25T10:02:43;37.70;69.70
35746;DHT22;21870;42.812;74.628;2022-07-25T10:05:18;37.70;66.80
35746;DHT22;21870;42.812;74.628;2022-07-25T10:07:48;37.90;69.10
35746;DHT22;21870;42.812;74.628;2022-07-25T10:10:36;37.70;69.40
35746;DHT22;21870;42.812;74.628;2022-07-25T10:13:07;37.80;69.30
35746;DHT22;21870;42.812;74.628;2022-07-25T10:15:54;37.60;69.00
35746;DHT22;21870;42.812;74.628;2022-07-25T10:18:23;37.70;66.50
35746;DHT22;21870;42.812;74.628;2022-07-25T10:20:52;37.60;67.30
35746;DHT22;21870;42.812;74.628;2022-07-25T10:23:27;37.60;69.00
35746;DHT22;21870;42.812;74.628;2022-07-25T10:26:19;37.70;70.50
35746;DHT22;21870;42.812;74.628;2022-07-25T10:28:51;37.60;70.60
35746;DHT22;21870;42.812;74.628;2022-07-25T10:31:24;37.60;69.80
35746;DHT22;21870;42.812;74.628;2022-07-25T10:34:00;37.40;69.00
35746;DHT22;21870;42.812;74.628;2022-07-25T10:36:28;37.50;70.20
35746;DHT22;21870;42.812;74.628;2022-07-25T10:39:09;37.50;69.50
35746;DHT22;21870;42.812;74.628;2022-07-25T10:41:53;37.60;71.30
35746;DHT22;21870;42.812;74.628;2022-07-25T10:44:20;37.80;69.10
35746;DHT22;21870;42.812;74.628;2022-07-25T10:46:47;37.90;69.60
35746;DHT22;21870;42.812;74.628;2022-07-25T10:49:23;37.90;68.90
35746;DHT22;21870;42.812;74.628;2022-07-25T10:51:57;37.80;68.00
35746;DHT22;21870;42.812;74.628;2022-07-25T10:54:24;37.60;68.10
35746;DHT22;21870;42.812;74.628;2022-07-25T10:56:55;37.60;69.20
35746;DHT22;21870;42.812;74.628;2022-07-25T10:59:40;37.70;69.70
35746;DHT22;21870;42.812;74.628;2022-07-25T11:02:08;37.80;67.10
35746;DHT22;21870;42.812;74.628;2022-07-25T11:04:36;37.70;67.00
35746;DHT22;21870;42.812;74.628;2022-07-25T11:07:11;37.60;66.80
35746;DHT22;21870;42.812;74.628;2022-07-25T11:09:37;37.50;68.60
35746;DHT22;21870;42.812;74.628;2022-07-25T11:12:04;37.50;69.80
35746;DHT22;21870;42.812;74.628;2022-07-25T11:14:33;37.40;68.80
35746;DHT22;21870;42.812;74.628;2022-07-25T11:17:29;37.40;67.80
35746;DHT22;21870;42.812;74.628;2022-07-25T11:19:57;37.40;68.30
35746;DHT22;21870;42.812;74.628;2022-07-25T11:22:24;37.40;68.90
35746;DHT22;21870;42.812;74.628;2022-07-25T11:24:51;37.40;66.60
35746;DHT22;21870;42.812;74.628;2022-07-25T11:27:28;37.40;67.50
35746;DHT22;21870;42.812;74.628;2022-07-25T11:30:15;37.50;67.00
35746;DHT22;21870;42.812;74.628;2022-07-25T11:32:47;37.50;69.10
35746;DHT22;21870;42.812;74.628;2022-07-25T11:35:28;37.40;67.00
35746;DHT22;21870;42.812;74.628;2022-07-25T11:37:55;37.20;68.60
35746;DHT22;21870;42.812;74.628;2022-07-25T11:40:22;37.20;67.40
35746;DHT22;21870;42.812;74.628;2022-07-25T11:45:24;36.90;68.20
35746;DHT22;21870;42.812;74.628;2022-07-25T11:48:12;36.90;68.70
35746;DHT22;21870;42.812;74.628;2022-07-25T11:50:40;36.90;70.10
35746;DHT22;21870;42.812;74.628;2022-07-25T11:53:13;36.80;69.30
35746;DHT22;21870;42.812;74.628;2022-07-25T11:55:40;36.80;68.70
35746;DHT22;21870;42.812;74.628;2022-07-25T11:58:07;36.70;70.10
35746;DHT22;21870;42.812;74.628;2022-07-25T12:00:53;36.70;70.60
35746;DHT22;21870;42.812;74.628;2022-07-25T12:03:19;36.60;68.90
35746;DHT22;21870;42.812;74.628;2022-07-25T12:05:46;36.50;69.00
35746;DHT22;21870;42.812;74.628;2022-07-25T12:08:13;36.30;70.60
35746;DHT22;21870;42.812;74.628;2022-07-25T12:10:40;36.20;67.60
35746;DHT22;21870;42.812;74.628;2022-07-25T12:13:08;36.20;68.20
35746;DHT22;21870;42.812;74.628;2022-07-25T12:15:39;36.00;68.40
35746;DHT22;21870;42.812;74.628;2022-07-25T12:18:07;35.90;69.80
35746;DHT22;21870;42.812;74.628;2022-07-25T12:20:39;35.80;69.10
35746;DHT22;21870;42.812;74.628;2022-07-25T12:23:09;35.80;69.10
35746;DHT22;21870;42.812;74.628;2022-07-25T12:25:37;35.50;69.50
35746;DHT22;21870;42.812;74.628;2022-07-25T12:28:04;35.30;69.50
35746;DHT22;21870;42.812;74.628;2022-07-25T12:30:31;35.30;68.80
35746;DHT22;21870;42.812;74.628;2022-07-25T12:32:59;35.30;70.00
35746;DHT22;21870;42.812;74.628;2022-07-25T12:35:26;35.30;68.90
35746;DHT22;21870;42.812;74.628;2022-07-25T12:37:52;35.30;70.70
35746;DHT22;21870;42.812;74.628;2022-07-25T12:40:19;35.20;69.60
35746;DHT22;21870;42.812;74.628;2022-07-25T12:42:46;35.10;69.50
35746;DHT22;21870;42.812;74.628;2022-07-25T12:45:13;35.10;69.80
35746;DHT22;21870;42.812;74.628;2022-07-25T12:47:43;35.00;67.50
35746;DHT22;21870;42.812;74.628;2022-07-25T12:50:13;34.90;68.70
35746;DHT22;21870;42.812;74.628;2022-07-25T12:52:40;34.90;69.20
35746;DHT22;21870;42.812;74.628;2022-07-25T12:55:11;34.90;68.40
35746;DHT22;21870;42.812;74.628;2022-07-25T12:57:38;34.80;69.40
35746;DHT22;21870;42.812;74.628;2022-07-25T13:00:06;34.60;68.30
35746;DHT22;21870;42.812;74.628;2022-07-25T13:02:33;34.50;69.20
35746;DHT22;21870;42.812;74.628;2022-07-25T13:04:59;34.50;69.20
35746;DHT22;21870;42.812;74.628;2022-07-25T13:07:25;34.50;69.20
35746;DHT22;21870;42.812;74.628;2022-07-25T13:09:51;34.30;69.10
35746;DHT22;21870;42.812;74.628;2022-07-25T13:12:18;34.30;68.90
35746;DHT22;21870;42.812;74.628;2022-07-25T13:14:44;34.30;69.60
35746;DHT22;21870;42.812;74.628;2022-07-25T13:17:10;34.30;69.50
35746;DHT22;21870;42.812;74.628;2022-07-25T13:19:36;34.30;69.90
35746;DHT22;21870;42.812;74.628;2022-07-25T13:22:02;34.30;69.00
35746;DHT22;21870;42.812;74.628;2022-07-25T13:24:28;34.20;69.10
35746;DHT22;21870;42.812;74.628;2022-07-25T13:26:55;34.20;68.70
35746;DHT22;21870;42.812;74.628;2022-07-25T13:29:21;34.20;68.20
35746;DHT22;21870;42.812;74.628;2022-07-25T13:31:47;34.10;68.90
35746;DHT22;21870;42.812;74.628;2022-07-25T13:34:13;34.00;69.00
35746;DHT22;21870;42.812;74.628;2022-07-25T13:36:39;34.00;69.30
35746;DHT22;21870;42.812;74.628;2022-07-25T13:39:05;33.90;69.20
35746;DHT22;21870;42.812;74.628;2022-07-25T13:41:32;33.80;69.10
35746;DHT22;21870;42.812;74.628;2022-07-25T13:43:58;33.60;69.70
35746;DHT22;21870;42.812;74.628;2022-07-25T13:46:25;33.60;69.50
35746;DHT22;21870;42.812;74.628;2022-07-25T13:48:52;33.60;69.30
35746;DHT22;21870;42.812;74.628;2022-07-25T13:51:19;33.60;69.10
35746;DHT22;21870;42.812;74.628;2022-07-25T13:53:45;33.50;68.60
35746;DHT22;21870;42.812;74.628;2022-07-25T13:56:11;33.50;68.90
35746;DHT22;21870;42.812;74.628;2022-07-25T13:58:40;33.50;69.20
35746;DHT22;21870;42.812;74.628;2022-07-25T14:01:08;33.40;68.70
35746;DHT22;21870;42.812;74.628;2022-07-25T14:03:36;33.30;68.80
35746;DHT22;21870;42.812;74.628;2022-07-25T14:06:03;33.20;68.90
35746;DHT22;21870;42.812;74.628;2022-07-25T14:08:29;33.20;69.00
35746;DHT22;21870;42.812;74.628;2022-07-25T14:10:56;33.10;68.60
35746;DHT22;21870;42.812;74.628;2022-07-25T14:13:22;33.10;69.10
35746;DHT22;21870;42.812;74.628;2022-07-25T14:15:49;33.10;68.20
35746;DHT22;21870;42.812;74.628;2022-07-25T14:18:15;33.00;68.10
35746;DHT22;21870;42.812;74.628;2022-07-25T14:20:42;33.00;67.50
35746;DHT22;21870;42.812;74.628;2022-07-25T14:23:08;33.00;67.90
35746;DHT22;21870;42.812;74.628;2022-07-25T14:25:34;32.90;69.20
35746;DHT22;21870;42.812;74.628;2022-07-25T14:28:00;32.80;70.30
35746;DHT22;21870;42.812;74.628;2022-07-25T14:30:26;32.70;70.10
35746;DHT22;21870;42.812;74.628;2022-07-25T14:32:52;32.70;69.70
35746;DHT22;21870;42.812;74.628;2022-07-25T14:35:19;32.60;69.90
35746;DHT22;21870;42.812;74.628;2022-07-25T14:37:45;32.60;70.10
35746;DHT22;21870;42.812;74.628;2022-07-25T14:40:12;32.50;71.20
35746;DHT22;21870;42.812;74.628;2022-07-25T14:42:39;32.30;71.10
35746;DHT22;21870;42.812;74.628;2022-07-25T14:45:07;32.30;69.90
35746;DHT22;21870;42.812;74.628;2022-07-25T14:47:33;32.30;69.70
35746;DHT22;21870;42.812;74.628;2022-07-25T14:49:59;32.20;69.90
35746;DHT22;21870;42.812;74.628;2022-07-25T14:52:25;32.00;72.10
35746;DHT22;21870;42.812;74.628;2022-07-25T14:54:51;32.00;70.40
35746;DHT22;21870;42.812;74.628;2022-07-25T14:57:17;31.80;71.80
35746;DHT22;21870;42.812;74.628;2022-07-25T14:59:43;31.80;70.60
35746;DHT22;21870;42.812;74.628;2022-07-25T15:02:10;31.80;70.20
35746;DHT22;21870;42.812;74.628;2022-07-25T15:04:36;31.80;70.20
35746;DHT22;21870;42.812;74.628;2022-07-25T15:07:02;31.70;70.00
35746;DHT22;21870;42.812;74.628;2022-07-25T15:09:28;31.70;69.50
35746;DHT22;21870;42.812;74.628;2022-07-25T15:11:54;31.60;69.20
35746;DHT22;21870;42.812;74.628;2022-07-25T15:14:20;31.60;69.30
35746;DHT22;21870;42.812;74.628;2022-07-25T15:16:47;31.40;70.30
35746;DHT22;21870;42.812;74.628;2022-07-25T15:19:13;31.30;71.40
35746;DHT22;21870;42.812;74.628;2022-07-25T15:21:39;31.20;72.30